sensor_id;sensor_type;location;lat;lon;timestamp;P1;durP1;ratioP1;P2;durP2;ratioP2
81223;SDS011;70698;44.402;18.522;2024-02-04T00:00:47;371.70;;;121.72;;
81223;SDS011;70698;44.402;18.522;2024-02-04T00:03:13;373.05;;;120.88;;
81223;SDS011;70698;44.402;18.522;2024-02-04T00:05:38;413.08;;;128.00;;
81223;SDS011;70698;44.402;18.522;2024-02-04T00:08:04;457.92;;;141.70;;
81223;SDS011;70698;44.402;18.522;2024-02-04T00:10:29;448.33;;;143.85;;
81223;SDS011;70698;44.402;18.522;2024-02-04T00:12:55;402.15;;;130.07;;
81223;SDS011;70698;44.402;18.522;2024-02-04T00:15:21;360.08;;;121.65;;
81223;SDS011;70698;44.402;18.522;2024-02-04T00:17:46;510.98;;;170.45;;
81223;SDS011;70698;44.402;18.522;2024-02-04T00:20:12;524.35;;;179.55;;
81223;SDS011;70698;44.402;18.522;2024-02-04T00:22:37;531.42;;;186.65;;
81223;SDS011;70698;44.402;18.522;2024-02-04T00:25:03;617.60;;;227.50;;
81223;SDS011;70698;44.402;18.522;2024-02-04T00:27:35;458.15;;;152.68;;
81223;SDS011;70698;44.402;18.522;2024-02-04T00:30:00;422.85;;;132.57;;
81223;SDS011;70698;44.402;18.522;2024-02-04T00:32:26;461.50;;;151.18;;
81223;SDS011;70698;44.402;18.522;2024-02-04T00:34:52;361.08;;;117.88;;
81223;SDS011;70698;44.402;18.522;2024-02-04T00:37:18;336.38;;;107.88;;
81223;SDS011;70698;44.402;18.522;2024-02-04T00:39:44;312.73;;;104.95;;
81223;SDS011;70698;44.402;18.522;2024-02-04T00:42:10;365.42;;;120.25;;
81223;SDS011;70698;44.402;18.522;2024-02-04T00:44:36;465.85;;;148.52;;
81223;SDS011;70698;44.402;18.522;2024-02-04T00:47:02;474.15;;;144.98;;
81223;SDS011;70698;44.402;18.522;2024-02-04T00:49:28;445.42;;;136.45;;
81223;SDS011;70698;44.402;18.522;2024-02-04T00:51:53;432.63;;;132.30;;
81223;SDS011;70698;44.402;18.522;2024-02-04T00:54:19;473.83;;;149.35;;
81223;SDS011;70698;44.402;18.522;2024-02-04T00:56:45;411.85;;;124.78;;
81223;SDS011;70698;44.402;18.522;2024-02-04T00:59:10;189.48;;;61.97;;
81223;SDS011;70698;44.402;18.522;2024-02-04T01:01:37;317.90;;;102.30;;
81223;SDS011;70698;44.402;18.522;2024-02-04T01:04:03;259.38;;;85.85;;
81223;SDS011;70698;44.402;18.522;2024-02-04T01:06:30;375.63;;;118.10;;
81223;SDS011;70698;44.402;18.522;2024-02-04T01:08:56;331.02;;;105.85;;
81223;SDS011;70698;44.402;18.522;2024-02-04T01:11:22;336.35;;;106.05;;
81223;SDS011;70698;44.402;18.522;2024-02-04T01:13:48;397.67;;;126.20;;
81223;SDS011;70698;44.402;18.522;2024-02-04T01:16:14;407.90;;;128.68;;
81223;SDS011;70698;44.402;18.522;2024-02-04T01:18:40;288.77;;;94.07;;
81223;SDS011;70698;44.402;18.522;2024-02-04T01:21:06;402.48;;;139.18;;
81223;SDS011;70698;44.402;18.522;2024-02-04T01:23:33;435.33;;;147.98;;
81223;SDS011;70698;44.402;18.522;2024-02-04T01:26:00;283.83;;;102.43;;
81223;SDS011;70698;44.402;18.522;2024-02-04T01:28:26;211.90;;;75.45;;
81223;SDS011;70698;44.402;18.522;2024-02-04T01:30:51;146.73;;;52.95;;
81223;SDS011;70698;44.402;18.522;2024-02-04T01:33:17;168.85;;;59.28;;
81223;SDS011;70698;44.402;18.522;2024-02-04T01:35:43;134.52;;;52.67;;
81223;SDS011;70698;44.402;18.522;2024-02-04T01:38:08;105.95;;;42.58;;
81223;SDS011;70698;44.402;18.522;2024-02-04T01:40:35;187.18;;;67.68;;
81223;SDS011;70698;44.402;18.522;2024-02-04T01:43:01;206.65;;;76.22;;
81223;SDS011;70698;44.402;18.522;2024-02-04T01:45:26;240.25;;;85.18;;
81223;SDS011;70698;44.402;18.522;2024-02-04T01:47:52;172.48;;;63.75;;
81223;SDS011;70698;44.402;18.522;2024-02-04T01:50:19;218.10;;;74.90;;
81223;SDS011;70698;44.402;18.522;2024-02-04T01:52:46;272.02;;;97.40;;
81223;SDS011;70698;44.402;18.522;2024-02-04T01:55:12;254.70;;;93.32;;
81223;SDS011;70698;44.402;18.522;2024-02-04T01:57:39;278.13;;;104.10;;
81223;SDS011;70698;44.402;18.522;2024-02-04T02:00:05;192.52;;;71.38;;
81223;SDS011;70698;44.402;18.522;2024-02-04T02:02:39;191.05;;;72.50;;
81223;SDS011;70698;44.402;18.522;2024-02-04T02:05:06;212.23;;;83.53;;
81223;SDS011;70698;44.402;18.522;2024-02-04T02:07:33;155.05;;;60.00;;
81223;SDS011;70698;44.402;18.522;2024-02-04T02:09:58;153.02;;;58.85;;
81223;SDS011;70698;44.402;18.522;2024-02-04T02:12:29;168.98;;;64.05;;
81223;SDS011;70698;44.402;18.522;2024-02-04T02:15:03;218.77;;;78.80;;
81223;SDS011;70698;44.402;18.522;2024-02-04T02:20:22;203.65;;;79.30;;
81223;SDS011;70698;44.402;18.522;2024-02-04T02:23:11;192.05;;;70.55;;
81223;SDS011;70698;44.402;18.522;2024-02-04T02:25:39;159.45;;;61.95;;
81223;SDS011;70698;44.402;18.522;2024-02-04T02:28:06;163.57;;;62.33;;
81223;SDS011;70698;44.402;18.522;2024-02-04T02:30:32;237.32;;;88.35;;
81223;SDS011;70698;44.402;18.522;2024-02-04T02:32:58;284.25;;;106.60;;
81223;SDS011;70698;44.402;18.522;2024-02-04T02:35:25;283.45;;;107.10;;
81223;SDS011;70698;44.402;18.522;2024-02-04T02:40:49;206.95;;;77.20;;
81223;SDS011;70698;44.402;18.522;2024-02-04T02:43:19;198.52;;;73.45;;
81223;SDS011;70698;44.402;18.522;2024-02-04T02:45:46;165.50;;;62.78;;
81223;SDS011;70698;44.402;18.522;2024-02-04T02:48:13;173.75;;;63.60;;
81223;SDS011;70698;44.402;18.522;2024-02-04T02:50:39;209.45;;;76.43;;
81223;SDS011;70698;44.402;18.522;2024-02-04T02:53:05;193.43;;;74.10;;
81223;SDS011;70698;44.402;18.522;2024-02-04T02:55:30;192.60;;;70.07;;
81223;SDS011;70698;44.402;18.522;2024-02-04T02:57:56;167.30;;;62.55;;
81223;SDS011;70698;44.402;18.522;2024-02-04T03:00:22;162.38;;;62.78;;
81223;SDS011;70698;44.402;18.522;2024-02-04T03:02:47;147.27;;;58.10;;
81223;SDS011;70698;44.402;18.522;2024-02-04T03:05:15;150.60;;;57.83;;
81223;SDS011;70698;44.402;18.522;2024-02-04T03:07:41;178.00;;;69.70;;
81223;SDS011;70698;44.402;18.522;2024-02-04T03:10:07;266.20;;;100.28;;
81223;SDS011;70698;44.402;18.522;2024-02-04T03:12:34;280.58;;;106.82;;
81223;SDS011;70698;44.402;18.522;2024-02-04T03:14:59;220.73;;;89.63;;
81223;SDS011;70698;44.402;18.522;2024-02-04T03:17:25;176.35;;;69.97;;
81223;SDS011;70698;44.402;18.522;2024-02-04T03:19:52;134.27;;;53.80;;
81223;SDS011;70698;44.402;18.522;2024-02-04T03:22:20;145.52;;;58.20;;
81223;SDS011;70698;44.402;18.522;2024-02-04T03:24:49;205.68;;;79.47;;
81223;SDS011;70698;44.402;18.522;2024-02-04T03:27:18;118.35;;;48.08;;
81223;SDS011;70698;44.402;18.522;2024-02-04T03:29:46;83.45;;;39.10;;
81223;SDS011;70698;44.402;18.522;2024-02-04T03:32:12;60.08;;;27.83;;
81223;SDS011;70698;44.402;18.522;2024-02-04T03:34:38;38.22;;;18.92;;
81223;SDS011;70698;44.402;18.522;2024-02-04T03:37:06;34.33;;;15.45;;
81223;SDS011;70698;44.402;18.522;2024-02-04T03:39:31;37.63;;;16.17;;
81223;SDS011;70698;44.402;18.522;2024-02-04T03:41:57;28.55;;;12.90;;
81223;SDS011;70698;44.402;18.522;2024-02-04T03:44:23;29.30;;;14.40;;
81223;SDS011;70698;44.402;18.522;2024-02-04T03:46:49;30.10;;;13.63;;
81223;SDS011;70698;44.402;18.522;2024-02-04T03:49:15;47.88;;;20.63;;
81223;SDS011;70698;44.402;18.522;2024-02-04T03:51:42;54.78;;;25.05;;
81223;SDS011;70698;44.402;18.522;2024-02-04T03:54:07;57.00;;;25.95;;
81223;SDS011;70698;44.402;18.522;2024-02-04T03:56:33;54.17;;;22.80;;
81223;SDS011;70698;44.402;18.522;2024-02-04T03:58:59;77.03;;;34.20;;
81223;SDS011;70698;44.402;18.522;2024-02-04T04:01:24;109.45;;;47.28;;
81223;SDS011;70698;44.402;18.522;2024-02-04T04:03:50;119.13;;;49.72;;
81223;SDS011;70698;44.402;18.522;2024-02-04T04:06:16;112.90;;;48.40;;
81223;SDS011;70698;44.402;18.522;2024-02-04T04:08:41;134.35;;;55.35;;
81223;SDS011;70698;44.402;18.522;2024-02-04T04:11:08;132.63;;;58.80;;
81223;SDS011;70698;44.402;18.522;2024-02-04T04:13:34;115.50;;;51.17;;
81223;SDS011;70698;44.402;18.522;2024-02-04T04:16:01;119.45;;;49.88;;
81223;SDS011;70698;44.402;18.522;2024-02-04T04:18:27;105.05;;;46.05;;
81223;SDS011;70698;44.402;18.522;2024-02-04T04:20:52;70.28;;;31.83;;
81223;SDS011;70698;44.402;18.522;2024-02-04T04:23:18;97.07;;;40.45;;
81223;SDS011;70698;44.402;18.522;2024-02-04T04:25:44;73.50;;;32.47;;
81223;SDS011;70698;44.402;18.522;2024-02-04T04:28:09;80.20;;;34.65;;
81223;SDS011;70698;44.402;18.522;2024-02-04T04:30:35;117.93;;;45.35;;
81223;SDS011;70698;44.402;18.522;2024-02-04T04:33:00;112.43;;;44.58;;
81223;SDS011;70698;44.402;18.522;2024-02-04T04:35:26;97.28;;;43.00;;
81223;SDS011;70698;44.402;18.522;2024-02-04T04:37:52;107.55;;;43.45;;
81223;SDS011;70698;44.402;18.522;2024-02-04T04:40:18;116.45;;;48.35;;
81223;SDS011;70698;44.402;18.522;2024-02-04T04:42:43;82.47;;;38.45;;
81223;SDS011;70698;44.402;18.522;2024-02-04T04:45:09;37.47;;;16.38;;
81223;SDS011;70698;44.402;18.522;2024-02-04T04:47:36;37.28;;;18.42;;
81223;SDS011;70698;44.402;18.522;2024-02-04T04:50:02;33.85;;;16.75;;
81223;SDS011;70698;44.402;18.522;2024-02-04T04:52:30;40.80;;;18.40;;
81223;SDS011;70698;44.402;18.522;2024-02-04T04:54:55;30.52;;;13.38;;
81223;SDS011;70698;44.402;18.522;2024-02-04T04:57:21;28.13;;;12.88;;
81223;SDS011;70698;44.402;18.522;2024-02-04T04:59:47;47.55;;;19.15;;
81223;SDS011;70698;44.402;18.522;2024-02-04T05:02:13;21.00;;;12.65;;
81223;SDS011;70698;44.402;18.522;2024-02-04T05:04:42;39.28;;;18.88;;
81223;SDS011;70698;44.402;18.522;2024-02-04T05:07:10;27.38;;;16.67;;
81223;SDS011;70698;44.402;18.522;2024-02-04T05:09:36;22.75;;;11.18;;
81223;SDS011;70698;44.402;18.522;2024-02-04T05:12:02;21.63;;;11.43;;
81223;SDS011;70698;44.402;18.522;2024-02-04T05:14:28;42.42;;;16.85;;
81223;SDS011;70698;44.402;18.522;2024-02-04T05:16:54;64.90;;;22.23;;
81223;SDS011;70698;44.402;18.522;2024-02-04T05:19:20;61.53;;;23.55;;
81223;SDS011;70698;44.402;18.522;2024-02-04T05:21:46;94.10;;;37.13;;
81223;SDS011;70698;44.402;18.522;2024-02-04T05:24:12;94.00;;;39.42;;
81223;SDS011;70698;44.402;18.522;2024-02-04T05:26:37;103.93;;;42.08;;
81223;SDS011;70698;44.402;18.522;2024-02-04T05:29:03;76.28;;;32.15;;
81223;SDS011;70698;44.402;18.522;2024-02-04T05:31:28;69.85;;;32.65;;
81223;SDS011;70698;44.402;18.522;2024-02-04T05:33:55;67.60;;;31.48;;
81223;SDS011;70698;44.402;18.522;2024-02-04T05:36:21;89.65;;;37.58;;
81223;SDS011;70698;44.402;18.522;2024-02-04T05:38:47;93.75;;;41.30;;
81223;SDS011;70698;44.402;18.522;2024-02-04T05:41:12;109.80;;;43.40;;
81223;SDS011;70698;44.402;18.522;2024-02-04T05:43:38;111.22;;;44.88;;
81223;SDS011;70698;44.402;18.522;2024-02-04T05:46:04;105.13;;;44.95;;
81223;SDS011;70698;44.402;18.522;2024-02-04T05:48:30;91.75;;;40.25;;
81223;SDS011;70698;44.402;18.522;2024-02-04T05:50:55;118.75;;;47.70;;
81223;SDS011;70698;44.402;18.522;2024-02-04T05:53:21;128.18;;;49.10;;
81223;SDS011;70698;44.402;18.522;2024-02-04T05:55:47;152.65;;;57.60;;
81223;SDS011;70698;44.402;18.522;2024-02-04T05:58:12;160.85;;;60.40;;
81223;SDS011;70698;44.402;18.522;2024-02-04T06:00:39;216.70;;;83.18;;
81223;SDS011;70698;44.402;18.522;2024-02-04T06:03:06;282.08;;;112.13;;
81223;SDS011;70698;44.402;18.522;2024-02-04T06:05:32;217.80;;;80.13;;
81223;SDS011;70698;44.402;18.522;2024-02-04T06:07:57;110.13;;;45.22;;
81223;SDS011;70698;44.402;18.522;2024-02-04T06:10:23;141.10;;;56.15;;
81223;SDS011;70698;44.402;18.522;2024-02-04T06:12:49;190.90;;;73.15;;
81223;SDS011;70698;44.402;18.522;2024-02-04T06:15:15;181.55;;;67.50;;
81223;SDS011;70698;44.402;18.522;2024-02-04T06:17:41;317.15;;;112.10;;
81223;SDS011;70698;44.402;18.522;2024-02-04T06:20:07;418.25;;;149.30;;
81223;SDS011;70698;44.402;18.522;2024-02-04T06:22:34;214.02;;;77.88;;
81223;SDS011;70698;44.402;18.522;2024-02-04T06:25:00;210.65;;;76.80;;
81223;SDS011;70698;44.402;18.522;2024-02-04T06:27:26;185.60;;;69.88;;
81223;SDS011;70698;44.402;18.522;2024-02-04T06:29:52;410.70;;;138.20;;
81223;SDS011;70698;44.402;18.522;2024-02-04T06:32:17;956.17;;;386.33;;
81223;SDS011;70698;44.402;18.522;2024-02-04T06:34:46;154.75;;;55.22;;
81223;SDS011;70698;44.402;18.522;2024-02-04T06:37:12;211.32;;;73.90;;
81223;SDS011;70698;44.402;18.522;2024-02-04T06:39:37;166.80;;;59.72;;
81223;SDS011;70698;44.402;18.522;2024-02-04T06:42:04;130.65;;;49.38;;
81223;SDS011;70698;44.402;18.522;2024-02-04T06:44:29;184.75;;;63.97;;
81223;SDS011;70698;44.402;18.522;2024-02-04T06:46:55;127.07;;;49.95;;
81223;SDS011;70698;44.402;18.522;2024-02-04T06:49:21;124.18;;;49.08;;
81223;SDS011;70698;44.402;18.522;2024-02-04T06:51:47;117.30;;;46.85;;
81223;SDS011;70698;44.402;18.522;2024-02-04T06:54:13;113.88;;;46.50;;
81223;SDS011;70698;44.402;18.522;2024-02-04T06:56:39;116.25;;;46.85;;
81223;SDS011;70698;44.402;18.522;2024-02-04T06:59:05;233.70;;;92.57;;
81223;SDS011;70698;44.402;18.522;2024-02-04T07:01:32;195.88;;;69.45;;
81223;SDS011;70698;44.402;18.522;2024-02-04T07:03:58;147.30;;;59.20;;
81223;SDS011;70698;44.402;18.522;2024-02-04T07:06:24;172.07;;;68.65;;
81223;SDS011;70698;44.402;18.522;2024-02-04T07:08:49;147.43;;;58.67;;
81223;SDS011;70698;44.402;18.522;2024-02-04T07:11:15;257.90;;;103.15;;
81223;SDS011;70698;44.402;18.522;2024-02-04T07:13:41;278.27;;;116.38;;
81223;SDS011;70698;44.402;18.522;2024-02-04T07:16:07;163.20;;;70.25;;
81223;SDS011;70698;44.402;18.522;2024-02-04T07:18:32;149.15;;;63.20;;
81223;SDS011;70698;44.402;18.522;2024-02-04T07:20:58;87.35;;;42.15;;
81223;SDS011;70698;44.402;18.522;2024-02-04T07:23:24;83.50;;;38.38;;
81223;SDS011;70698;44.402;18.522;2024-02-04T07:25:49;101.20;;;44.15;;
81223;SDS011;70698;44.402;18.522;2024-02-04T07:28:15;90.18;;;39.25;;
81223;SDS011;70698;44.402;18.522;2024-02-04T07:30:40;73.43;;;33.50;;
81223;SDS011;70698;44.402;18.522;2024-02-04T07:33:06;131.65;;;54.28;;
81223;SDS011;70698;44.402;18.522;2024-02-04T07:35:32;139.00;;;59.28;;
81223;SDS011;70698;44.402;18.522;2024-02-04T07:37:57;133.85;;;52.88;;
81223;SDS011;70698;44.402;18.522;2024-02-04T07:40:23;161.52;;;66.30;;
81223;SDS011;70698;44.402;18.522;2024-02-04T07:42:49;174.73;;;75.13;;
81223;SDS011;70698;44.402;18.522;2024-02-04T07:45:14;188.70;;;78.30;;
81223;SDS011;70698;44.402;18.522;2024-02-04T07:47:40;456.23;;;156.13;;
81223;SDS011;70698;44.402;18.522;2024-02-04T07:50:06;479.52;;;168.07;;
81223;SDS011;70698;44.402;18.522;2024-02-04T07:52:32;311.75;;;117.40;;
81223;SDS011;70698;44.402;18.522;2024-02-04T07:54:58;176.27;;;69.97;;
81223;SDS011;70698;44.402;18.522;2024-02-04T07:57:24;204.15;;;78.32;;
81223;SDS011;70698;44.402;18.522;2024-02-04T07:59:50;209.40;;;89.72;;
81223;SDS011;70698;44.402;18.522;2024-02-04T08:02:17;123.32;;;51.22;;
81223;SDS011;70698;44.402;18.522;2024-02-04T08:04:43;404.13;;;138.40;;
81223;SDS011;70698;44.402;18.522;2024-02-04T08:07:09;484.10;;;176.52;;
81223;SDS011;70698;44.402;18.522;2024-02-04T08:09:34;241.85;;;87.03;;
81223;SDS011;70698;44.402;18.522;2024-02-04T08:12:00;193.32;;;76.15;;
81223;SDS011;70698;44.402;18.522;2024-02-04T08:14:26;170.80;;;63.58;;
81223;SDS011;70698;44.402;18.522;2024-02-04T08:16:51;87.70;;;38.25;;
81223;SDS011;70698;44.402;18.522;2024-02-04T08:19:17;281.02;;;116.63;;
81223;SDS011;70698;44.402;18.522;2024-02-04T08:21:43;295.75;;;129.68;;
81223;SDS011;70698;44.402;18.522;2024-02-04T08:24:09;216.32;;;95.35;;
81223;SDS011;70698;44.402;18.522;2024-02-04T08:26:35;154.60;;;74.65;;
81223;SDS011;70698;44.402;18.522;2024-02-04T08:29:00;132.77;;;62.00;;
81223;SDS011;70698;44.402;18.522;2024-02-04T08:31:26;127.97;;;55.92;;
81223;SDS011;70698;44.402;18.522;2024-02-04T08:33:52;157.10;;;59.17;;
81223;SDS011;70698;44.402;18.522;2024-02-04T08:36:18;172.63;;;66.68;;
81223;SDS011;70698;44.402;18.522;2024-02-04T08:38:44;123.32;;;53.38;;
81223;SDS011;70698;44.402;18.522;2024-02-04T08:41:10;103.78;;;47.00;;
81223;SDS011;70698;44.402;18.522;2024-02-04T08:43:35;92.88;;;41.45;;
81223;SDS011;70698;44.402;18.522;2024-02-04T08:46:01;93.03;;;42.38;;
81223;SDS011;70698;44.402;18.522;2024-02-04T08:48:27;86.18;;;38.60;;
81223;SDS011;70698;44.402;18.522;2024-02-04T08:50:53;91.03;;;39.67;;
81223;SDS011;70698;44.402;18.522;2024-02-04T08:53:21;63.20;;;28.88;;
81223;SDS011;70698;44.402;18.522;2024-02-04T08:55:49;81.50;;;35.85;;
81223;SDS011;70698;44.402;18.522;2024-02-04T08:58:15;58.00;;;29.42;;
81223;SDS011;70698;44.402;18.522;2024-02-04T09:00:41;74.80;;;33.72;;
81223;SDS011;70698;44.402;18.522;2024-02-04T09:03:07;86.65;;;40.40;;
81223;SDS011;70698;44.402;18.522;2024-02-04T09:05:32;79.85;;;38.58;;
81223;SDS011;70698;44.402;18.522;2024-02-04T09:07:58;87.72;;;41.92;;
81223;SDS011;70698;44.402;18.522;2024-02-04T09:10:26;75.93;;;37.10;;
81223;SDS011;70698;44.402;18.522;2024-02-04T09:12:52;57.38;;;29.23;;
81223;SDS011;70698;44.402;18.522;2024-02-04T09:15:18;52.17;;;26.48;;
81223;SDS011;70698;44.402;18.522;2024-02-04T09:17:44;55.58;;;28.13;;
81223;SDS011;70698;44.402;18.522;2024-02-04T09:20:09;61.08;;;28.00;;
81223;SDS011;70698;44.402;18.522;2024-02-04T09:22:36;73.75;;;33.95;;
81223;SDS011;70698;44.402;18.522;2024-02-04T09:25:01;66.43;;;33.03;;
81223;SDS011;70698;44.402;18.522;2024-02-04T09:27:27;51.78;;;27.27;;
81223;SDS011;70698;44.402;18.522;2024-02-04T09:29:53;56.63;;;29.33;;
81223;SDS011;70698;44.402;18.522;2024-02-04T09:32:20;52.63;;;28.52;;
81223;SDS011;70698;44.402;18.522;2024-02-04T09:34:46;51.63;;;27.27;;
81223;SDS011;70698;44.402;18.522;2024-02-04T09:37:11;56.42;;;29.58;;
81223;SDS011;70698;44.402;18.522;2024-02-04T09:39:37;63.58;;;32.15;;
81223;SDS011;70698;44.402;18.522;2024-02-04T09:42:03;64.90;;;35.05;;
81223;SDS011;70698;44.402;18.522;2024-02-04T09:44:28;73.45;;;37.63;;
81223;SDS011;70698;44.402;18.522;2024-02-04T09:46:57;77.55;;;39.17;;
81223;SDS011;70698;44.402;18.522;2024-02-04T09:49:25;99.07;;;47.33;;
81223;SDS011;70698;44.402;18.522;2024-02-04T09:51:52;90.22;;;44.65;;
81223;SDS011;70698;44.402;18.522;2024-02-04T09:54:18;73.03;;;36.00;;
81223;SDS011;70698;44.402;18.522;2024-02-04T09:56:46;71.00;;;33.90;;
81223;SDS011;70698;44.402;18.522;2024-02-04T09:59:13;55.22;;;26.63;;
81223;SDS011;70698;44.402;18.522;2024-02-04T10:01:38;58.80;;;29.80;;
81223;SDS011;70698;44.402;18.522;2024-02-04T10:04:05;60.00;;;29.95;;
81223;SDS011;70698;44.402;18.522;2024-02-04T10:06:31;51.38;;;27.38;;
81223;SDS011;70698;44.402;18.522;2024-02-04T10:08:56;48.35;;;27.50;;
81223;SDS011;70698;44.402;18.522;2024-02-04T10:11:22;52.70;;;26.55;;
81223;SDS011;70698;44.402;18.522;2024-02-04T10:13:48;47.22;;;25.02;;
81223;SDS011;70698;44.402;18.522;2024-02-04T10:16:17;67.60;;;35.25;;
81223;SDS011;70698;44.402;18.522;2024-02-04T10:18:46;56.45;;;32.25;;
81223;SDS011;70698;44.402;18.522;2024-02-04T10:21:20;70.75;;;37.03;;
81223;SDS011;70698;44.402;18.522;2024-02-04T10:23:49;65.60;;;36.67;;
81223;SDS011;70698;44.402;18.522;2024-02-04T10:26:17;84.75;;;46.80;;
81223;SDS011;70698;44.402;18.522;2024-02-04T10:28:45;92.47;;;50.65;;
81223;SDS011;70698;44.402;18.522;2024-02-04T10:31:12;80.70;;;45.80;;
81223;SDS011;70698;44.402;18.522;2024-02-04T10:33:38;69.38;;;38.78;;
81223;SDS011;70698;44.402;18.522;2024-02-04T10:36:04;50.53;;;28.52;;
81223;SDS011;70698;44.402;18.522;2024-02-04T10:38:31;68.75;;;38.85;;
81223;SDS011;70698;44.402;18.522;2024-02-04T10:40:59;74.00;;;42.55;;
81223;SDS011;70698;44.402;18.522;2024-02-04T10:43:32;72.35;;;39.30;;
81223;SDS011;70698;44.402;18.522;2024-02-04T10:46:08;53.67;;;32.20;;
81223;SDS011;70698;44.402;18.522;2024-02-04T10:48:37;64.60;;;34.35;;
81223;SDS011;70698;44.402;18.522;2024-02-04T10:51:14;57.58;;;34.63;;
81223;SDS011;70698;44.402;18.522;2024-02-04T10:53:43;60.38;;;33.33;;
81223;SDS011;70698;44.402;18.522;2024-02-04T10:56:13;50.20;;;27.77;;
81223;SDS011;70698;44.402;18.522;2024-02-04T10:58:44;43.53;;;24.80;;
81223;SDS011;70698;44.402;18.522;2024-02-04T11:01:12;36.53;;;21.80;;
81223;SDS011;70698;44.402;18.522;2024-02-04T11:03:39;32.88;;;19.52;;
81223;SDS011;70698;44.402;18.522;2024-02-04T11:06:07;30.98;;;18.67;;
81223;SDS011;70698;44.402;18.522;2024-02-04T11:08:35;32.72;;;20.17;;
81223;SDS011;70698;44.402;18.522;2024-02-04T11:11:00;35.78;;;21.33;;
81223;SDS011;70698;44.402;18.522;2024-02-04T11:13:26;32.20;;;20.08;;
81223;SDS011;70698;44.402;18.522;2024-02-04T11:26:45;32.72;;;18.23;;
81223;SDS011;70698;44.402;18.522;2024-02-04T11:29:11;26.33;;;15.63;;
81223;SDS011;70698;44.402;18.522;2024-02-04T11:31:38;25.92;;;15.20;;
81223;SDS011;70698;44.402;18.522;2024-02-04T11:34:07;25.13;;;13.93;;
81223;SDS011;70698;44.402;18.522;2024-02-04T11:36:37;22.10;;;13.68;;
81223;SDS011;70698;44.402;18.522;2024-02-04T11:39:14;12.95;;;8.80;;
81223;SDS011;70698;44.402;18.522;2024-02-04T11:41:47;14.88;;;9.63;;
81223;SDS011;70698;44.402;18.522;2024-02-04T11:44:26;20.95;;;11.95;;
81223;SDS011;70698;44.402;18.522;2024-02-04T11:46:52;18.00;;;11.43;;
81223;SDS011;70698;44.402;18.522;2024-02-04T11:49:23;19.90;;;11.55;;
81223;SDS011;70698;44.402;18.522;2024-02-04T11:51:50;20.08;;;10.48;;
81223;SDS011;70698;44.402;18.522;2024-02-04T11:54:17;17.60;;;10.90;;
81223;SDS011;70698;44.402;18.522;2024-02-04T11:56:50;21.48;;;12.13;;
81223;SDS011;70698;44.402;18.522;2024-02-04T11:59:24;18.73;;;11.30;;
81223;SDS011;70698;44.402;18.522;2024-02-04T12:01:55;20.40;;;12.88;;
81223;SDS011;70698;44.402;18.522;2024-02-04T12:04:21;21.08;;;13.30;;
81223;SDS011;70698;44.402;18.522;2024-02-04T12:06:47;26.00;;;14.10;;
81223;SDS011;70698;44.402;18.522;2024-02-04T12:09:15;25.45;;;14.38;;
81223;SDS011;70698;44.402;18.522;2024-02-04T12:11:43;24.77;;;15.88;;
81223;SDS011;70698;44.402;18.522;2024-02-04T12:14:09;17.90;;;10.95;;
81223;SDS011;70698;44.402;18.522;2024-02-04T12:16:35;19.00;;;11.90;;
81223;SDS011;70698;44.402;18.522;2024-02-04T12:19:02;18.42;;;11.60;;
81223;SDS011;70698;44.402;18.522;2024-02-04T12:21:31;20.95;;;11.98;;
81223;SDS011;70698;44.402;18.522;2024-02-04T12:23:58;19.90;;;11.82;;
81223;SDS011;70698;44.402;18.522;2024-02-04T12:26:25;21.45;;;12.40;;
81223;SDS011;70698;44.402;18.522;2024-02-04T12:28:51;19.52;;;12.82;;
81223;SDS011;70698;44.402;18.522;2024-02-04T12:31:18;22.25;;;12.70;;
81223;SDS011;70698;44.402;18.522;2024-02-04T12:33:57;23.67;;;14.18;;
81223;SDS011;70698;44.402;18.522;2024-02-04T12:36:25;22.77;;;13.85;;
81223;SDS011;70698;44.402;18.522;2024-02-04T12:38:54;30.23;;;18.10;;
81223;SDS011;70698;44.402;18.522;2024-02-04T12:41:25;32.03;;;19.30;;
81223;SDS011;70698;44.402;18.522;2024-02-04T12:46:21;19.40;;;12.98;;
81223;SDS011;70698;44.402;18.522;2024-02-04T12:48:51;16.65;;;10.75;;
81223;SDS011;70698;44.402;18.522;2024-02-04T12:51:29;23.33;;;15.73;;
81223;SDS011;70698;44.402;18.522;2024-02-04T12:56:45;18.13;;;12.05;;
81223;SDS011;70698;44.402;18.522;2024-02-04T13:02:13;20.85;;;12.10;;
81223;SDS011;70698;44.402;18.522;2024-02-04T13:04:42;20.67;;;13.68;;
81223;SDS011;70698;44.402;18.522;2024-02-04T13:07:08;17.25;;;10.00;;
81223;SDS011;70698;44.402;18.522;2024-02-04T13:09:35;17.08;;;11.15;;
81223;SDS011;70698;44.402;18.522;2024-02-04T13:12:07;18.33;;;11.98;;
81223;SDS011;70698;44.402;18.522;2024-02-04T13:14:34;20.65;;;12.27;;
81223;SDS011;70698;44.402;18.522;2024-02-04T13:17:06;21.65;;;14.88;;
81223;SDS011;70698;44.402;18.522;2024-02-04T13:19:36;79.85;;;37.50;;
81223;SDS011;70698;44.402;18.522;2024-02-04T13:22:03;64.65;;;30.45;;
81223;SDS011;70698;44.402;18.522;2024-02-04T13:24:30;69.95;;;35.67;;
81223;SDS011;70698;44.402;18.522;2024-02-04T13:26:56;54.93;;;29.10;;
81223;SDS011;70698;44.402;18.522;2024-02-04T13:29:23;37.55;;;21.67;;
81223;SDS011;70698;44.402;18.522;2024-02-04T13:31:49;45.42;;;23.90;;
81223;SDS011;70698;44.402;18.522;2024-02-04T13:34:15;20.35;;;12.75;;
81223;SDS011;70698;44.402;18.522;2024-02-04T13:36:41;22.00;;;14.32;;
81223;SDS011;70698;44.402;18.522;2024-02-04T13:39:08;33.05;;;18.00;;
81223;SDS011;70698;44.402;18.522;2024-02-04T13:41:33;71.20;;;31.48;;
81223;SDS011;70698;44.402;18.522;2024-02-04T13:44:01;68.60;;;29.65;;
81223;SDS011;70698;44.402;18.522;2024-02-04T13:46:27;338.25;;;118.20;;
81223;SDS011;70698;44.402;18.522;2024-02-04T13:48:52;78.63;;;33.17;;
81223;SDS011;70698;44.402;18.522;2024-02-04T13:51:18;52.88;;;24.30;;
81223;SDS011;70698;44.402;18.522;2024-02-04T13:53:44;93.20;;;41.35;;
81223;SDS011;70698;44.402;18.522;2024-02-04T13:56:09;96.53;;;45.25;;
81223;SDS011;70698;44.402;18.522;2024-02-04T13:58:35;30.90;;;18.13;;
81223;SDS011;70698;44.402;18.522;2024-02-04T14:01:01;25.90;;;16.58;;
81223;SDS011;70698;44.402;18.522;2024-02-04T14:03:26;91.20;;;43.47;;
81223;SDS011;70698;44.402;18.522;2024-02-04T14:05:52;42.05;;;24.38;;
81223;SDS011;70698;44.402;18.522;2024-02-04T14:08:20;48.88;;;27.42;;
81223;SDS011;70698;44.402;18.522;2024-02-04T14:10:46;55.83;;;32.60;;
81223;SDS011;70698;44.402;18.522;2024-02-04T14:13:12;36.53;;;21.55;;
81223;SDS011;70698;44.402;18.522;2024-02-04T14:15:38;40.17;;;23.95;;
81223;SDS011;70698;44.402;18.522;2024-02-04T14:18:04;38.72;;;23.55;;
81223;SDS011;70698;44.402;18.522;2024-02-04T14:20:30;53.80;;;29.10;;
81223;SDS011;70698;44.402;18.522;2024-02-04T14:22:56;37.95;;;22.52;;